Huvudsida
METAR-TAF:

METAR-TAF

Flygplatser :

Clinton / Burns Flat, Oklahoma, USA

latitud: 35-21-24N, longitud: 099-12-13W, höjd: 585 m

Aktuellt väderrapport

Denna rapport gjordes för 22 minuter sedan, klockan 09:53 UTC
Vind 6 kt från syd/sydväst
Temperatur -4°C
Fuktighet 80%
Tryck 1033 hPa
Sikt: 16.1 km
Klar himmel

METAR: KCSM 190953Z AUTO 21006KT 10SM CLR M04/M07 A3049 RMK AO2 SLP336 T10391067

Tid: 04:15 (10:15 UTC)

Väderprognos

Denna rapport gjordes för 4 timmar och 55 minuter sedan, klockan 05:20 UTC
Prognos gäller från 19 kl. 06 UTC till 20 kl. 06 UTC
Vind 5 kt varierande vindriktning
Sikt: 10 km
Få moln på en höjd av 25000 ft
Från 19 kl. 0900 UTC
Vind 12 kt från sydväst
Sikt: 10 km
Spridda moln på en höjd av 18000 ft
Från 19 kl. 2300 UTC
Vind 7 kt från syd
Sikt: 10 km
Klar himmel

TAF: KCSM 190520Z 1906/2006 VRB05KT P6SM FEW250 FM190900 23012KT P6SM SCT180 FM192300 17007KT P6SM SKC

Aktuella väderrapporter och prognoser från 4000 flygplatser (METAR- och TAF-rapporter).

De tillgängliga stationerna syns som gula och röda prickar på kartan.

För musen över prickarna för att se namnen på stationerna.

Klicka sedan för att få väderrapporter och prognoser.

För att ändra kartan: Klicka på de gröna knapparna med ett svart kors på för att zooma in; den gröna knappen med ett streck på för att zooma ut; eller på de gröna pilarna för angränsande kartor.


METAR-TAF: